Time;durP1;ratioP1;P1;durP2;ratioP2;P2;SDS_P1;SDS_P2;PMS_P1;PMS_P2;Temp;Humidity;BMP_temperature;BMP_pressure;BME280_temperature;BME280_humidity;BME280_pressure;Samples;Min_cycle;Max_cycle;Signal;HPM_P1;HPM_P2
2023/05/29 00:00:33;;;;;;;14.25;2.47;;;13.40;99.90;;;;;;4903603;29;20048;-75
2023/05/29 00:02:59;;;;;;;14.25;2.45;;;13.50;99.90;;;;;;4887778;29;20036;-75
2023/05/29 00:05:25;;;;;;;17.10;2.80;;;13.50;99.90;;;;;;4887486;29;20074;-75
2023/05/29 00:07:51;;;;;;;16.33;2.40;;;13.50;99.90;;;;;;4872124;29;20059;-75
2023/05/29 00:10:16;;;;;;;14.80;2.60;;;13.50;99.90;;;;;;4887244;29;20052;-75
2023/05/29 00:12:42;;;;;;;15.80;2.50;;;13.50;99.90;;;;;;4887023;29;20056;-75
2023/05/29 00:15:12;;;;;;;13.98;2.42;;;13.40;99.90;;;;;;4903602;29;20076;-75
2023/05/29 00:17:39;;;;;;;16.60;1.95;;;13.30;99.90;;;;;;4887051;29;20040;-75
2023/05/29 00:20:09;;;;;;;21.27;2.60;;;13.30;99.90;;;;;;4886891;29;20056;-75
2023/05/29 00:22:37;;;;;;;16.35;2.53;;;13.30;99.90;;;;;;4903680;29;20049;-75
2023/05/29 00:25:05;;;;;;;18.27;2.70;;;13.30;99.90;;;;;;4871678;29;20048;-75
2023/05/29 00:27:32;;;;;;;20.50;2.95;;;13.30;99.90;;;;;;4886508;29;20059;-76
2023/05/29 00:29:58;;;;;;;21.02;2.53;;;13.20;99.90;;;;;;4903136;29;20049;-75
2023/05/29 00:32:25;;;;;;;15.75;2.20;;;13.10;99.90;;;;;;4903423;29;20431;-75
2023/05/29 00:34:51;;;;;;;13.23;2.75;;;13.10;99.90;;;;;;4903599;29;20108;-75
2023/05/29 00:37:17;;;;;;;11.95;2.08;;;13.10;99.90;;;;;;4886849;29;20044;-75
2023/05/29 00:39:43;;;;;;;13.40;2.75;;;13.20;99.90;;;;;;4886611;29;20053;-75
2023/05/29 00:42:09;;;;;;;14.35;2.30;;;13.10;99.90;;;;;;4886887;29;20059;-75
2023/05/29 00:44:35;;;;;;;12.77;2.58;;;13.10;99.90;;;;;;4886718;29;20060;-75
2023/05/29 00:47:01;;;;;;;14.95;2.33;;;13.10;99.90;;;;;;4871592;29;20430;-75
2023/05/29 00:49:27;;;;;;;16.73;2.20;;;13.10;99.90;;;;;;4902955;29;20076;-75
2023/05/29 00:51:55;;;;;;;12.93;1.92;;;13.20;99.90;;;;;;4886624;29;20040;-75
2023/05/29 00:54:26;;;;;;;16.50;2.05;;;13.10;99.90;;;;;;4870740;29;20087;-75
2023/05/29 00:56:52;;;;;;;18.20;2.50;;;13.00;99.90;;;;;;4903092;29;20041;-75
2023/05/29 00:59:21;;;;;;;15.02;2.40;;;13.00;99.90;;;;;;4885835;29;20124;-75
2023/05/29 01:01:48;;;;;;;19.20;2.50;;;12.90;99.90;;;;;;4886345;29;20104;-75
2023/05/29 01:04:16;;;;;;;15.25;2.22;;;12.90;99.90;;;;;;4902800;29;20119;-75
2023/05/29 01:06:42;;;;;;;15.90;2.40;;;12.80;99.90;;;;;;4885925;29;20354;-76
2023/05/29 01:09:07;;;;;;;15.52;1.85;;;12.90;99.90;;;;;;4886116;29;20037;-75
2023/05/29 01:11:39;;;;;;;16.08;2.42;;;12.80;99.90;;;;;;4902810;29;20120;-75
2023/05/29 01:14:09;;;;;;;17.45;2.25;;;12.90;99.90;;;;;;4902703;29;20091;-75
2023/05/29 01:16:51;;;;;;;16.88;3.28;;;12.90;99.90;;;;;;4902530;29;20047;-75
2023/05/29 01:19:47;;;;;;;15.75;3.20;;;12.90;99.90;;;;;;4902348;29;20100;-75
2023/05/29 01:22:31;;;;;;;16.45;3.15;;;12.90;99.90;;;;;;4886151;29;20048;-75
2023/05/29 01:25:39;;;;;;;19.05;3.05;;;12.90;99.90;;;;;;4902113;29;20481;-75
2023/05/29 01:28:07;;;;;;;21.50;3.30;;;12.80;99.90;;;;;;4869943;29;20060;-75
2023/05/29 01:30:34;;;;;;;16.45;2.80;;;12.80;99.90;;;;;;4885355;29;20435;-75
2023/05/29 01:33:00;;;;;;;14.80;3.05;;;12.80;99.90;;;;;;4902371;29;20052;-74
2023/05/29 01:35:25;;;;;;;17.20;2.85;;;12.70;99.90;;;;;;4885507;29;20052;-75
2023/05/29 01:37:51;;;;;;;20.83;2.42;;;12.80;99.90;;;;;;4902211;29;20055;-75
2023/05/29 01:40:17;;;;;;;10.32;2.15;;;12.70;99.90;;;;;;4885435;29;20045;-75
2023/05/29 01:42:43;;;;;;;20.85;2.08;;;12.80;99.90;;;;;;4902132;29;20045;-75
2023/05/29 01:45:11;;;;;;;15.95;1.80;;;12.80;99.90;;;;;;4902194;29;20120;-75
2023/05/29 01:47:37;;;;;;;14.43;2.55;;;12.70;99.90;;;;;;4901898;29;20040;-75
2023/05/29 01:50:04;;;;;;;16.40;3.47;;;12.60;99.90;;;;;;4885453;29;20052;-75
2023/05/29 01:52:31;;;;;;;13.48;2.28;;;12.60;99.90;;;;;;4885283;29;20044;-74
2023/05/29 01:54:57;;;;;;;20.98;2.80;;;12.60;99.90;;;;;;4901821;29;20108;-75
2023/05/29 01:57:23;;;;;;;16.40;2.72;;;12.60;99.90;;;;;;4885380;29;20080;-75
2023/05/29 01:59:50;;;;;;;14.80;2.35;;;12.70;99.90;;;;;;4884665;29;20107;-75
2023/05/29 02:02:16;;;;;;;16.55;2.60;;;12.70;99.90;;;;;;4885842;29;20052;-74
2023/05/29 02:04:41;;;;;;;19.20;2.95;;;12.60;99.90;;;;;;4901745;29;20044;-75
2023/05/29 02:07:07;;;;;;;15.32;2.50;;;12.60;99.90;;;;;;4885294;29;20144;-75
2023/05/29 02:09:35;;;;;;;17.92;2.95;;;12.60;99.90;;;;;;4901537;29;20044;-75
2023/05/29 02:12:01;;;;;;;15.77;2.40;;;12.50;99.90;;;;;;4869708;29;20338;-75
2023/05/29 02:14:27;;;;;;;18.90;2.58;;;12.50;99.90;;;;;;4885227;29;20391;-75
2023/05/29 02:16:53;;;;;;;15.07;2.92;;;12.50;99.90;;;;;;4884833;29;20107;-75
2023/05/29 02:19:19;;;;;;;22.65;2.90;;;12.50;99.90;;;;;;4884800;29;20101;-75
2023/05/29 02:21:46;;;;;;;17.15;3.05;;;12.50;99.90;;;;;;4901480;29;20049;-75
2023/05/29 02:24:12;;;;;;;17.90;2.53;;;12.50;99.90;;;;;;4901391;29;20060;-75
2023/05/29 02:26:37;;;;;;;16.88;2.17;;;12.50;99.90;;;;;;4885120;29;20155;-75
2023/05/29 02:29:05;;;;;;;13.77;2.35;;;12.50;99.90;;;;;;4884656;29;20052;-75
2023/05/29 02:31:31;;;;;;;18.17;2.67;;;12.50;99.90;;;;;;4884365;29;20044;-75
2023/05/29 02:33:57;;;;;;;13.45;2.38;;;12.50;99.90;;;;;;4901240;29;20123;-75
2023/05/29 02:36:22;;;;;;;15.02;2.40;;;12.50;99.90;;;;;;4885006;29;20040;-76
2023/05/29 02:38:48;;;;;;;15.02;2.38;;;12.40;99.90;;;;;;4901204;29;20343;-75
2023/05/29 02:41:14;;;;;;;13.32;2.42;;;12.50;99.90;;;;;;4901485;29;20060;-76
2023/05/29 02:43:39;;;;;;;12.57;2.03;;;12.40;99.90;;;;;;4901299;29;20079;-75
2023/05/29 02:46:05;;;;;;;16.25;2.20;;;12.40;99.90;;;;;;4869499;29;20041;-75
2023/05/29 02:48:31;;;;;;;9.45;2.05;;;12.30;99.90;;;;;;4901219;29;20447;-75
2023/05/29 02:50:56;;;;;;;12.88;2.30;;;12.30;99.90;;;;;;4884820;29;20048;-75
2023/05/29 02:53:22;;;;;;;12.93;2.03;;;12.30;99.90;;;;;;4901069;29;20334;-74
2023/05/29 02:55:48;;;;;;;14.30;2.00;;;12.20;99.90;;;;;;4901102;29;20041;-75
2023/05/29 02:58:16;;;;;;;12.70;2.13;;;12.30;99.90;;;;;;4884758;29;20041;-75
2023/05/29 03:00:41;;;;;;;17.70;2.13;;;12.30;99.90;;;;;;4883950;29;20056;-75
2023/05/29 03:03:07;;;;;;;16.65;2.00;;;12.20;99.90;;;;;;4884429;29;20120;-75
2023/05/29 03:05:33;;;;;;;12.00;2.10;;;12.20;99.90;;;;;;4853593;29;20040;-75
2023/05/29 03:08:02;;;;;;;13.98;3.13;;;12.20;99.90;;;;;;4884449;29;20056;-75
2023/05/29 03:10:27;;;;;;;16.45;2.25;;;12.20;99.90;;;;;;4901106;29;20037;-75
2023/05/29 03:12:54;;;;;;;18.08;2.33;;;12.20;99.90;;;;;;4884741;29;20097;-75
2023/05/29 03:15:20;;;;;;;14.50;1.80;;;12.20;99.90;;;;;;4869015;29;20054;-75
2023/05/29 03:17:46;;;;;;;11.65;2.03;;;12.10;99.90;;;;;;4901034;29;20055;-75
2023/05/29 03:20:13;;;;;;;14.18;1.83;;;12.10;99.90;;;;;;4900798;29;20123;-76
2023/05/29 03:22:38;;;;;;;12.88;2.05;;;12.10;99.90;;;;;;4884365;29;20107;-75
2023/05/29 03:25:05;;;;;;;14.80;2.03;;;12.00;99.90;;;;;;4901097;29;20048;-75
2023/05/29 03:27:31;;;;;;;10.40;1.90;;;12.00;99.90;;;;;;4868458;29;20040;-75
2023/05/29 03:29:58;;;;;;;14.43;2.38;;;12.10;99.90;;;;;;4900571;29;20149;-75
2023/05/29 03:32:24;;;;;;;9.93;1.75;;;12.10;99.90;;;;;;4900811;29;20044;-75
2023/05/29 03:34:49;;;;;;;14.75;1.95;;;12.10;99.90;;;;;;4901024;29;20052;-75
2023/05/29 03:37:16;;;;;;;12.30;1.98;;;12.20;99.90;;;;;;4900945;29;20337;-75
2023/05/29 03:39:41;;;;;;;12.52;1.92;;;12.20;99.90;;;;;;4868657;29;20089;-75
2023/05/29 03:42:07;;;;;;;16.67;2.28;;;12.20;99.90;;;;;;4884535;29;20064;-74
2023/05/29 03:44:33;;;;;;;17.95;1.80;;;12.20;99.90;;;;;;4884207;29;20044;-75
2023/05/29 03:46:59;;;;;;;15.13;1.80;;;12.20;99.90;;;;;;4886203;29;20040;-75
2023/05/29 03:49:24;;;;;;;10.52;1.77;;;12.20;99.90;;;;;;4904128;29;20338;-75
2023/05/29 03:51:50;;;;;;;11.95;1.80;;;12.20;99.90;;;;;;4887844;29;20051;-75
2023/05/29 03:54:16;;;;;;;12.25;1.77;;;12.20;99.90;;;;;;4904088;29;20072;-75
2023/05/29 03:56:42;;;;;;;14.02;1.80;;;12.30;99.90;;;;;;4887501;29;20135;-75
2023/05/29 03:59:08;;;;;;;14.85;1.80;;;12.40;99.90;;;;;;4887546;29;20119;-75
2023/05/29 04:01:34;;;;;;;16.02;2.30;;;12.50;99.90;;;;;;4886934;29;20434;-75
2023/05/29 04:04:00;;;;;;;15.20;2.63;;;12.60;99.90;;;;;;4887321;29;20361;-76
2023/05/29 04:06:26;;;;;;;14.40;1.98;;;12.60;99.90;;;;;;4904301;29;20095;-75
2023/05/29 04:08:52;;;;;;;9.95;2.13;;;12.60;99.90;;;;;;4903913;29;20043;-75
2023/05/29 04:11:20;;;;;;;13.95;2.05;;;12.60;99.90;;;;;;4887412;29;20040;-75
2023/05/29 04:13:47;;;;;;;14.18;2.40;;;12.60;99.90;;;;;;4887036;29;20052;-75
2023/05/29 04:16:13;;;;;;;15.15;2.83;;;12.70;99.90;;;;;;4886967;29;20146;-74
2023/05/29 04:18:39;;;;;;;16.60;2.70;;;12.50;99.90;;;;;;4887118;29;20166;-75
2023/05/29 04:21:05;;;;;;;15.15;2.35;;;12.60;99.90;;;;;;4898122;29;20131;-75
2023/05/29 04:23:31;;;;;;;17.55;2.38;;;12.70;99.90;;;;;;4870920;29;20044;-75
2023/05/29 04:25:56;;;;;;;11.90;2.40;;;12.80;99.90;;;;;;4903912;29;20037;-75
2023/05/29 04:28:23;;;;;;;17.52;2.33;;;12.80;99.90;;;;;;4903335;29;20115;-75
2023/05/29 04:30:49;;;;;;;19.95;2.60;;;12.70;99.90;;;;;;4903106;29;20044;-75
2023/05/29 04:33:15;;;;;;;12.27;2.53;;;12.80;99.90;;;;;;4903165;29;20059;-75
2023/05/29 04:35:44;;;;;;;12.57;2.13;;;12.80;99.90;;;;;;4871468;29;20056;-75
2023/05/29 04:38:10;;;;;;;15.10;2.10;;;13.00;99.90;;;;;;4871548;29;20041;-75
2023/05/29 04:40:40;;;;;;;11.98;1.90;;;13.00;99.90;;;;;;4903118;29;20442;-75
2023/05/29 04:43:06;;;;;;;14.43;2.28;;;13.20;99.90;;;;;;4887382;29;20449;-75
2023/05/29 04:45:31;;;;;;;12.40;2.63;;;13.20;99.90;;;;;;4903173;29;20045;-75
2023/05/29 04:47:57;;;;;;;16.23;2.78;;;13.00;99.90;;;;;;4886569;29;20426;-75
2023/05/29 04:50:23;;;;;;;17.30;2.63;;;13.00;99.90;;;;;;4903322;29;20052;-75
2023/05/29 04:52:49;;;;;;;13.48;2.20;;;12.90;99.90;;;;;;4886692;29;20055;-75
2023/05/29 04:55:16;;;;;;;16.27;3.05;;;12.70;99.90;;;;;;4902995;29;20493;-75
2023/05/29 04:57:41;;;;;;;14.75;2.28;;;12.70;99.90;;;;;;4902173;29;20048;-75
2023/05/29 05:00:14;;;;;;;16.88;2.58;;;12.90;99.90;;;;;;4885826;29;20123;-75
2023/05/29 05:02:42;;;;;;;15.85;2.42;;;13.10;99.90;;;;;;4902879;29;20426;-75
2023/05/29 05:05:09;;;;;;;20.30;2.88;;;13.20;99.90;;;;;;4902954;29;20100;-75
2023/05/29 05:07:34;;;;;;;15.82;2.17;;;13.30;99.90;;;;;;4902794;29;20052;-75
2023/05/29 05:10:00;;;;;;;20.33;2.97;;;13.20;99.90;;;;;;4886533;29;20052;-75
2023/05/29 05:12:26;;;;;;;17.27;2.63;;;13.30;99.90;;;;;;4902743;29;20048;-75
2023/05/29 05:14:52;;;;;;;14.40;2.15;;;13.20;99.90;;;;;;4886197;29;20330;-76
2023/05/29 05:17:17;;;;;;;20.63;2.60;;;13.40;99.90;;;;;;4902551;29;20044;-75
2023/05/29 05:19:43;;;;;;;13.82;2.47;;;13.60;99.90;;;;;;4902745;29;20316;-75
2023/05/29 05:22:09;;;;;;;16.70;2.97;;;13.50;99.90;;;;;;4902559;29;20474;-75
2023/05/29 05:24:35;;;;;;;16.90;3.15;;;13.60;99.90;;;;;;4902550;29;20136;-75
2023/05/29 05:27:01;;;;;;;14.05;2.67;;;13.80;99.90;;;;;;4885721;29;20045;-75
2023/05/29 05:29:27;;;;;;;15.30;2.67;;;13.70;99.90;;;;;;4901875;29;20200;-75
2023/05/29 05:31:52;;;;;;;16.52;2.53;;;13.70;99.90;;;;;;4885682;29;20473;-75
2023/05/29 05:34:18;;;;;;;19.10;2.90;;;13.80;99.90;;;;;;4902400;29;20052;-75
2023/05/29 05:36:44;;;;;;;19.77;3.28;;;13.90;99.90;;;;;;4902692;29;20041;-75
2023/05/29 05:39:10;;;;;;;24.20;2.88;;;13.70;99.90;;;;;;4902148;29;20153;-75
2023/05/29 05:41:35;;;;;;;17.98;2.72;;;13.80;99.90;;;;;;4902352;29;20401;-75
2023/05/29 05:44:01;;;;;;;18.67;2.92;;;13.90;99.90;;;;;;4885697;29;20036;-75
2023/05/29 05:46:27;;;;;;;16.42;2.60;;;14.10;99.90;;;;;;4885571;29;20041;-76
2023/05/29 05:48:56;;;;;;;15.40;2.83;;;14.30;99.90;;;;;;4902049;29;20041;-75
2023/05/29 05:51:23;;;;;;;16.92;2.95;;;14.30;99.90;;;;;;4902079;29;20052;-75
2023/05/29 05:53:48;;;;;;;12.40;2.60;;;14.40;99.90;;;;;;4885666;29;20104;-74
2023/05/29 05:56:14;;;;;;;15.15;2.50;;;14.30;99.90;;;;;;4901987;29;20048;-74
2023/05/29 05:58:41;;;;;;;20.13;2.80;;;14.40;99.90;;;;;;4885229;29;20131;-75
2023/05/29 06:01:08;;;;;;;24.60;3.17;;;14.30;99.90;;;;;;4900921;29;20052;-75
2023/05/29 06:03:34;;;;;;;18.02;2.80;;;14.40;99.90;;;;;;4870070;29;20045;-75
2023/05/29 06:06:00;;;;;;;17.17;2.75;;;14.40;99.90;;;;;;4885458;29;20052;-74
2023/05/29 06:08:26;;;;;;;17.65;2.75;;;14.60;99.90;;;;;;4901563;29;20450;-75
2023/05/29 06:10:52;;;;;;;21.23;2.92;;;14.50;99.90;;;;;;4884871;29;20092;-75
2023/05/29 06:13:18;;;;;;;21.15;2.78;;;14.40;99.90;;;;;;4901617;29;20044;-75
2023/05/29 06:15:44;;;;;;;27.13;4.78;;;14.10;99.90;;;;;;4901856;29;20051;-75
2023/05/29 06:18:10;;;;;;;17.60;3.72;;;13.90;99.90;;;;;;4901660;29;20036;-75
2023/05/29 06:20:36;;;;;;;22.85;3.13;;;13.90;99.90;;;;;;4901705;29;20327;-74
2023/05/29 06:23:02;;;;;;;24.70;3.35;;;14.00;99.90;;;;;;4885046;29;20330;-74
2023/05/29 06:25:32;;;;;;;15.95;3.22;;;14.20;99.90;;;;;;4901904;29;20042;-74
2023/05/29 06:28:02;;;;;;;16.92;3.10;;;14.00;99.90;;;;;;4901122;29;20057;-75
2023/05/29 06:30:28;;;;;;;16.65;3.03;;;14.10;99.90;;;;;;4900878;29;20053;-74
2023/05/29 06:32:54;;;;;;;25.42;2.65;;;14.00;99.90;;;;;;4884840;29;20055;-74
2023/05/29 06:35:20;;;;;;;19.67;3.05;;;14.10;99.90;;;;;;4901571;29;20051;-74
2023/05/29 06:37:46;;;;;;;20.00;3.42;;;14.20;99.90;;;;;;4884784;29;20048;-74
2023/05/29 06:40:12;;;;;;;15.10;2.58;;;14.20;99.90;;;;;;4884775;29;20067;-74
2023/05/29 06:42:38;;;;;;;22.35;3.17;;;14.40;99.90;;;;;;4901180;29;20045;-75
2023/05/29 06:45:04;;;;;;;23.50;3.40;;;14.60;99.90;;;;;;4884692;29;20449;-75
2023/05/29 06:47:30;;;;;;;18.75;3.40;;;14.50;99.90;;;;;;4884623;29;20124;-75
2023/05/29 06:49:56;;;;;;;16.55;2.83;;;14.50;99.90;;;;;;4884724;29;20128;-74
2023/05/29 06:52:21;;;;;;;23.45;3.38;;;14.40;99.90;;;;;;4884878;29;20044;-74
2023/05/29 06:54:47;;;;;;;21.05;3.25;;;14.70;99.90;;;;;;4901297;29;20041;-75
2023/05/29 06:57:13;;;;;;;18.85;3.28;;;14.70;99.90;;;;;;4884516;29;20092;-74
2023/05/29 06:59:38;;;;;;;17.75;3.08;;;14.70;99.90;;;;;;4853384;29;20052;-74
2023/05/29 07:02:05;;;;;;;21.52;3.28;;;14.70;99.90;;;;;;4901148;29;20049;-74
2023/05/29 07:04:31;;;;;;;23.83;2.78;;;14.60;99.90;;;;;;4884810;29;20184;-74
2023/05/29 07:06:56;;;;;;;21.73;3.25;;;14.60;99.90;;;;;;4884424;29;20119;-69
2023/05/29 07:09:22;;;;;;;16.00;3.30;;;14.80;99.90;;;;;;4900918;29;20127;-72
2023/05/29 07:11:48;;;;;;;18.20;2.75;;;14.80;99.90;;;;;;4901273;29;20041;-70
2023/05/29 07:14:14;;;;;;;21.52;3.35;;;14.80;99.90;;;;;;4901020;29;20391;-72
2023/05/29 07:16:40;;;;;;;21.75;4.00;;;15.00;99.90;;;;;;4901087;29;20059;-70
2023/05/29 07:19:05;;;;;;;23.58;3.83;;;14.50;99.90;;;;;;4902952;29;20072;-72
2023/05/29 07:21:32;;;;;;;26.08;3.38;;;14.40;99.90;;;;;;4903551;29;20391;-69
2023/05/29 07:23:58;;;;;;;19.52;3.67;;;14.30;99.90;;;;;;4904867;29;20080;-70
2023/05/29 07:26:25;;;;;;;22.42;3.60;;;14.40;99.90;;;;;;4904577;29;20349;-71
2023/05/29 07:28:51;;;;;;;23.05;4.22;;;14.40;99.90;;;;;;4904408;29;20403;-70
2023/05/29 07:31:16;;;;;;;18.70;3.00;;;14.50;99.90;;;;;;4903963;29;20128;-71
2023/05/29 07:33:42;;;;;;;17.35;2.88;;;14.70;99.90;;;;;;4904625;29;20045;-70
2023/05/29 07:36:08;;;;;;;24.02;3.47;;;14.80;99.90;;;;;;4887669;29;20049;-69
2023/05/29 07:38:33;;;;;;;15.95;3.10;;;14.90;99.90;;;;;;4904632;29;20040;-70
2023/05/29 07:40:59;;;;;;;24.77;3.03;;;15.10;99.90;;;;;;4904268;29;20120;-71
2023/05/29 07:43:25;;;;;;;24.00;3.20;;;15.20;99.90;;;;;;4904440;29;20119;-71
2023/05/29 07:45:50;;;;;;;17.88;3.53;;;15.30;99.90;;;;;;4904184;29;20050;-71
2023/05/29 07:48:16;;;;;;;15.45;3.22;;;15.40;99.90;;;;;;4887575;29;20059;-72
2023/05/29 07:50:42;;;;;;;16.45;2.92;;;15.50;99.90;;;;;;4904272;29;20089;-72
2023/05/29 07:53:07;;;;;;;18.95;3.40;;;15.70;99.90;;;;;;4887740;29;20140;-72
2023/05/29 07:55:35;;;;;;;21.38;2.97;;;15.80;99.90;;;;;;4904067;29;20438;-71
2023/05/29 07:58:01;;;;;;;25.95;3.28;;;15.80;99.90;;;;;;4904126;29;20052;-71
2023/05/29 08:00:28;;;;;;;21.77;3.13;;;15.90;99.90;;;;;;4903716;29;20053;-71
2023/05/29 08:02:54;;;;;;;24.02;3.45;;;15.60;99.90;;;;;;4887455;29;20418;-71
2023/05/29 08:05:20;;;;;;;18.83;3.40;;;15.40;99.90;;;;;;4903917;29;20100;-87
2023/05/29 08:07:48;;;;;;;18.42;3.33;;;15.70;99.90;;;;;;4887413;29;20045;-87
2023/05/29 08:10:14;;;;;;;20.25;3.70;;;15.30;99.90;;;;;;4903724;29;20080;-87
2023/05/29 08:12:40;;;;;;;23.30;3.60;;;15.30;99.90;;;;;;4887632;29;20052;-86
2023/05/29 08:15:06;;;;;;;21.13;2.97;;;15.20;99.90;;;;;;4887221;29;20051;-71
2023/05/29 08:17:32;;;;;;;19.33;3.30;;;15.20;99.90;;;;;;4904003;29;20045;-70
2023/05/29 08:19:57;;;;;;;21.42;3.15;;;15.40;99.90;;;;;;4903636;29;20041;-72
2023/05/29 08:22:29;;;;;;;19.75;2.85;;;15.40;99.90;;;;;;4903731;29;20044;-83
2023/05/29 08:24:55;;;;;;;27.23;4.28;;;15.60;99.90;;;;;;4871505;29;20047;-83
2023/05/29 08:27:21;;;;;;;20.88;2.85;;;15.40;99.90;;;;;;4871664;29;20045;-83
2023/05/29 08:29:46;;;;;;;17.02;3.00;;;15.10;99.90;;;;;;4886281;29;20140;-70
2023/05/29 08:32:12;;;;;;;25.95;3.78;;;15.40;99.90;;;;;;4886821;29;20047;-71
2023/05/29 08:34:38;;;;;;;33.53;3.50;;;15.60;99.90;;;;;;4903558;29;20096;-71
2023/05/29 08:37:05;;;;;;;20.65;3.17;;;15.80;99.90;;;;;;4886940;29;20048;-71
2023/05/29 08:39:31;;;;;;;18.88;2.60;;;15.80;99.90;;;;;;4903262;29;20059;-71
2023/05/29 08:42:12;;;;;;;23.80;3.28;;;15.70;99.90;;;;;;4903243;29;20036;-71
2023/05/29 08:44:40;;;;;;;20.92;4.07;;;15.80;99.90;;;;;;4903457;29;20050;-71
2023/05/29 08:47:07;;;;;;;23.70;3.67;;;16.00;99.90;;;;;;4898867;29;20088;-72
2023/05/29 08:49:45;;;;;;;18.13;2.83;;;16.00;99.90;;;;;;4900372;29;20051;-72
2023/05/29 08:52:19;;;;;;;16.17;2.72;;;16.10;99.90;;;;;;4895865;29;20103;-74
2023/05/29 08:54:46;;;;;;;21.60;3.00;;;16.10;99.90;;;;;;4902140;29;20063;-71
2023/05/29 08:57:12;;;;;;;23.65;3.45;;;16.10;99.90;;;;;;4902769;29;20040;-71
2023/05/29 08:59:42;;;;;;;18.38;3.05;;;16.00;99.90;;;;;;4902694;29;20502;-71
2023/05/29 09:02:08;;;;;;;20.52;3.20;;;16.10;99.90;;;;;;4902878;29;20183;-71
2023/05/29 09:04:33;;;;;;;25.35;3.65;;;16.20;99.90;;;;;;4902765;29;20069;-71
2023/05/29 09:06:59;;;;;;;21.67;3.45;;;16.10;99.90;;;;;;4902924;29;20140;-72
2023/05/29 09:09:29;;;;;;;26.25;3.97;;;16.00;99.90;;;;;;4902837;29;20436;-71
2023/05/29 09:11:56;;;;;;;27.73;3.10;;;16.10;99.90;;;;;;4902831;29;20048;-72
2023/05/29 09:14:42;;;;;;;20.70;3.05;;;16.10;99.90;;;;;;4902897;29;20073;-71
2023/05/29 09:17:09;;;;;;;19.88;3.10;;;16.00;99.90;;;;;;4902579;29;20453;-71
2023/05/29 09:19:37;;;;;;;19.50;3.45;;;16.00;99.90;;;;;;4902700;29;20055;-72
2023/05/29 09:22:06;;;;;;;19.23;2.92;;;16.30;99.90;;;;;;4902463;29;20044;-71
2023/05/29 09:24:38;;;;;;;23.58;3.55;;;16.60;99.90;;;;;;4902705;29;20095;-71
2023/05/29 09:27:07;;;;;;;17.35;2.95;;;16.80;99.90;;;;;;4902312;29;20052;-77
2023/05/29 09:29:37;;;;;;;19.70;3.28;;;17.00;99.90;;;;;;4870322;29;20064;-72
2023/05/29 09:32:11;;;;;;;26.30;3.20;;;17.20;99.90;;;;;;4902192;29;20088;-76
2023/05/29 09:34:37;;;;;;;17.30;2.78;;;17.40;99.90;;;;;;4902209;29;20426;-72
2023/05/29 09:37:08;;;;;;;19.73;3.33;;;17.50;99.90;;;;;;4902404;29;20052;-71
2023/05/29 09:39:53;;;;;;;19.23;2.92;;;17.80;99.90;;;;;;4885373;29;20347;-71
2023/05/29 09:42:20;;;;;;;16.95;2.90;;;17.80;99.90;;;;;;4902118;29;20453;-72
2023/05/29 09:44:51;;;;;;;23.77;3.25;;;17.80;99.90;;;;;;4901833;29;20095;-72
2023/05/29 09:47:18;;;;;;;24.42;3.30;;;17.70;99.90;;;;;;4902130;29;20048;-72
2023/05/29 09:49:46;;;;;;;11.88;2.40;;;17.70;99.90;;;;;;4902071;29;20184;-72
2023/05/29 09:52:15;;;;;;;25.42;3.60;;;17.50;99.90;;;;;;4901758;29;20048;-72
2023/05/29 09:54:45;;;;;;;25.83;3.42;;;17.80;99.90;;;;;;4901772;29;20044;-72
2023/05/29 09:57:16;;;;;;;19.90;3.63;;;17.90;99.90;;;;;;4902154;29;20112;-72
2023/05/29 09:59:44;;;;;;;18.13;3.47;;;17.90;99.90;;;;;;4901574;29;20041;-72
2023/05/29 10:02:13;;;;;;;18.80;3.40;;;17.80;99.90;;;;;;4901794;29;20040;-72
2023/05/29 10:04:43;;;;;;;20.80;3.13;;;18.00;99.90;;;;;;4901705;29;20045;-72
2023/05/29 10:07:31;;;;;;;20.77;3.97;;;17.80;99.90;;;;;;4901579;29;20075;-72
2023/05/29 10:10:03;;;;;;;20.13;3.25;;;17.80;99.90;;;;;;4901735;29;20048;-72
2023/05/29 10:12:31;;;;;;;22.40;3.40;;;17.90;99.90;;;;;;4901846;29;20370;-72
2023/05/29 10:14:59;;;;;;;19.55;3.40;;;18.20;99.90;;;;;;4901523;29;20495;-72
2023/05/29 10:17:34;;;;;;;24.25;3.38;;;17.60;99.90;;;;;;4901592;29;20398;-72
2023/05/29 10:20:04;;;;;;;20.33;3.20;;;17.50;99.90;;;;;;4901678;29;20308;-72
2023/05/29 10:22:31;;;;;;;16.40;2.88;;;17.60;99.90;;;;;;4901448;29;20115;-71
2023/05/29 10:24:58;;;;;;;18.58;3.35;;;18.10;99.90;;;;;;4901418;29;20040;-72
2023/05/29 10:27:24;;;;;;;20.20;2.67;;;18.40;99.90;;;;;;4901419;29;20457;-72
2023/05/29 10:30:05;;;;;;;16.17;3.05;;;18.40;99.90;;;;;;4901064;29;20100;-73
2023/05/29 10:32:53;;;;;;;13.88;3.17;;;18.50;99.90;;;;;;4884817;29;20076;-72
2023/05/29 10:35:31;;;;;;;16.35;2.65;;;18.10;99.90;;;;;;4901600;29;20047;-72
2023/05/29 10:38:11;;;;;;;17.05;3.35;;;18.20;99.90;;;;;;4901492;29;20052;-72
2023/05/29 10:40:37;;;;;;;16.38;3.22;;;18.30;99.90;;;;;;4901142;29;20128;-75
2023/05/29 10:43:03;;;;;;;20.38;3.47;;;18.10;99.90;;;;;;4901266;29;20391;-71
2023/05/29 10:45:31;;;;;;;25.35;3.42;;;18.40;99.90;;;;;;4901305;29;20092;-72
2023/05/29 10:48:28;;;;;;;18.50;3.25;;;18.40;99.90;;;;;;4902527;29;20041;-71
2023/05/29 10:50:55;;;;;;;18.02;2.58;;;18.40;99.90;;;;;;4896630;29;20096;-72
2023/05/29 10:53:28;;;;;;;15.85;2.95;;;18.40;99.90;;;;;;4901291;29;20056;-71
2023/05/29 10:55:54;;;;;;;18.60;2.67;;;18.60;99.90;;;;;;4901777;29;20089;-72
2023/05/29 10:58:22;;;;;;;14.98;2.75;;;18.80;99.90;;;;;;4888699;29;20044;-72
2023/05/29 11:00:48;;;;;;;17.38;2.35;;;19.10;99.90;;;;;;4904630;29;20049;-72
2023/05/29 11:03:21;;;;;;;18.98;3.13;;;19.30;99.90;;;;;;4905015;29;20319;-73
2023/05/29 11:06:26;;;;;;;15.07;2.53;;;19.20;99.90;;;;;;4905140;29;20044;-72
2023/05/29 11:08:56;;;;;;;12.85;2.50;;;19.40;99.90;;;;;;4901920;29;20091;-72
2023/05/29 11:11:28;;;;;;;17.15;3.65;;;18.90;99.90;;;;;;4904894;29;20311;-71
2023/05/29 11:13:56;;;;;;;22.60;3.13;;;19.20;99.90;;;;;;4904940;29;20131;-72
2023/05/29 11:16:30;;;;;;;21.80;3.13;;;19.20;99.90;;;;;;4905069;29;20053;-70
2023/05/29 11:18:57;;;;;;;19.50;3.30;;;19.30;99.90;;;;;;4904887;29;20315;-72
2023/05/29 11:21:38;;;;;;;21.88;3.80;;;19.00;99.90;;;;;;4904948;29;20040;-71
2023/05/29 11:24:07;;;;;;;14.55;2.63;;;18.80;99.90;;;;;;4904664;29;20044;-71
2023/05/29 11:26:36;;;;;;;16.17;3.00;;;18.60;99.90;;;;;;4888139;29;20117;-71
2023/05/29 11:29:06;;;;;;;15.10;3.10;;;18.70;99.90;;;;;;4904581;29;20053;-71
2023/05/29 11:31:34;;;;;;;19.83;3.00;;;18.60;99.90;;;;;;4905309;29;20048;-69
2023/05/29 11:34:04;;;;;;;18.63;3.05;;;18.90;99.90;;;;;;4905817;29;20044;-68
2023/05/29 11:36:33;;;;;;;16.65;2.95;;;18.80;99.90;;;;;;4904500;29;20064;-71
2023/05/29 11:39:00;;;;;;;13.00;2.38;;;18.60;99.90;;;;;;4904456;29;20048;-71
2023/05/29 11:41:26;;;;;;;14.30;3.00;;;18.70;99.90;;;;;;4904332;29;20041;-71
2023/05/29 11:44:02;;;;;;;20.35;3.58;;;19.20;99.90;;;;;;4904394;29;20041;-72
2023/05/29 11:46:30;;;;;;;14.77;2.67;;;19.30;99.90;;;;;;4904369;29;20349;-71
2023/05/29 11:48:56;;;;;;;17.70;3.28;;;19.40;99.90;;;;;;4904191;29;20056;-71
2023/05/29 11:51:22;;;;;;;20.35;3.08;;;19.60;99.90;;;;;;4903749;29;20418;-71
2023/05/29 11:53:49;;;;;;;17.83;2.65;;;19.90;99.90;;;;;;4887219;29;20051;-71
2023/05/29 11:56:14;;;;;;;17.80;3.10;;;19.40;99.90;;;;;;4904297;29;20068;-71
2023/05/29 11:58:40;;;;;;;13.70;2.67;;;19.20;99.90;;;;;;4904177;29;20044;-71
2023/05/29 12:01:09;;;;;;;14.82;2.55;;;19.30;99.90;;;;;;4903531;29;20127;-71
2023/05/29 12:03:42;;;;;;;20.70;3.15;;;19.30;99.90;;;;;;4903780;29;20052;-70
2023/05/29 12:06:10;;;;;;;13.35;2.90;;;19.50;99.90;;;;;;4903754;29;20112;-72
2023/05/29 12:08:36;;;;;;;18.45;3.22;;;20.20;99.90;;;;;;4903639;29;20044;-71
2023/05/29 12:11:02;;;;;;;15.77;2.70;;;20.20;99.90;;;;;;4904145;29;20055;-71
2023/05/29 12:13:28;;;;;;;19.17;2.33;;;20.50;99.90;;;;;;4903910;29;20044;-71
2023/05/29 12:16:03;;;;;;;15.48;2.40;;;20.60;99.90;;;;;;4903870;29;20076;-71
2023/05/29 12:18:29;;;;;;;11.52;2.70;;;20.40;99.90;;;;;;4903881;29;20104;-73
2023/05/29 12:21:02;;;;;;;13.93;2.28;;;20.20;99.90;;;;;;4903766;29;20338;-70
2023/05/29 12:23:29;;;;;;;11.25;2.30;;;20.30;99.90;;;;;;4903591;29;20036;-70
2023/05/29 12:25:55;;;;;;;15.35;3.10;;;20.30;99.90;;;;;;4904013;29;20057;-70
2023/05/29 12:28:21;;;;;;;14.75;2.90;;;20.20;99.90;;;;;;4903171;29;20060;-70
2023/05/29 12:30:49;;;;;;;13.88;2.53;;;20.60;99.90;;;;;;4903267;29;20052;-70
2023/05/29 12:33:34;;;;;;;15.35;3.15;;;21.00;99.90;;;;;;4903360;29;20052;-70
2023/05/29 12:36:09;;;;;;;13.85;2.33;;;21.10;99.90;;;;;;4903547;29;20123;-70
2023/05/29 12:38:51;;;;;;;13.05;2.58;;;21.20;99.90;;;;;;4886695;29;20080;-70
2023/05/29 12:41:33;;;;;;;14.82;2.65;;;21.20;99.90;;;;;;4903527;29;20040;-71